LFRO/LAI METAR and TAF weather

Enter ICAO airport designator
Station Type Date Time Source
LFRO METAR 2021/09/19 13:30 UTC NOAA

LFRO 191330Z AUTO 28012KT 9999 BKN014 BKN020 OVC029 17/14 Q1019


Station Type Date Time Source
LFRO Decoded METAR 2021/09/19 13:30 UTC NOAA

Lannion / Servel, France (LFRO) 48-45N 003-28W
Sep 19, 2021 - 09:30 AM EDT / 2021.09.19 1330 UTC
Wind: from the W (280 degrees) at 14 MPH (12 KT):0
Visibility: greater than 7 mile(s):0
Sky conditions: overcast
Temperature: 62 F (17 C)
Dew Point: 57 F (14 C)
Relative Humidity: 82%
Pressure (altimeter): 30.09 in. Hg (1019 hPa)
ob: LFRO 191330Z AUTO 28012KT 9999 BKN014 BKN020 OVC029 17/14 Q1019
cycle: 13

Station Type Date Time Source
LFRO TAF 2019/05/15 19:06 UTC NOAA

TAF LFRO 151936Z 1519/1612 CNL

Example: see airport list